Aurora, Nevada
Current Conditions -  °F | °C
As of 7:52 AM on Saturday 22 Nov 2014 (Local Time) from KBAN Reporting Station
Light Rain Light Rain  
Wind Chill: 38°   Ceiling: 3500
Heat Index: 45°   Visibility: NA
Dew Point: 38°   Wind: 17mph
Humidity: 76%   Direction: 250°WSW
Pressure: 30.03"   Gusts: 33mph
Location:  38.7596°N, 119.34°W
Report Text: KBAN 221552Z AUTO 25015G29KT -RA BKN035 OVC047 07/03 A3003 RMK AO2 PK WND 27032/1506 SLP137 P0005 T00720033 $
Loading
Personal Weather Stations






























Interactive Weather Map New forecast layout! Learn more

10-Day Weather Forecast

Advertisements
Track Severe Weather on mobile